createdAt,value
2023-05-17T00:01:56.152Z,99835.23
2023-05-17T00:04:23.208Z,99838.70
2023-05-17T00:06:50.173Z,99839.45
2023-05-17T00:09:16.810Z,99842.73
2023-05-17T00:11:43.408Z,99842.85
2023-05-17T00:14:09.976Z,99843.13
2023-05-17T00:16:36.593Z,99846.73
2023-05-17T00:19:03.290Z,99845.56
2023-05-17T00:21:29.944Z,99849.30
2023-05-17T00:23:56.523Z,99849.85
2023-05-17T00:26:23.151Z,99852.80
2023-05-17T00:28:49.799Z,99856.67
2023-05-17T00:31:16.422Z,99858.05
2023-05-17T00:33:44.194Z,99858.05
2023-05-17T00:36:11.158Z,99863.55
2023-05-17T00:38:37.732Z,99862.58
2023-05-17T00:41:04.869Z,99864.30
2023-05-17T00:43:31.573Z,99862.61
2023-05-17T00:45:58.209Z,99860.64
2023-05-17T00:48:28.008Z,99859.55
2023-05-17T00:50:55.928Z,99861.61
2023-05-17T00:53:22.533Z,99861.13
2023-05-17T00:55:49.117Z,99864.54
2023-05-17T00:58:15.906Z,99868.12
2023-05-17T01:00:42.865Z,99865.52
2023-05-17T01:03:09.540Z,99867.95
2023-05-17T01:05:36.381Z,99865.85
2023-05-17T01:08:02.990Z,99863.60
2023-05-17T01:10:37.884Z,99864.18
2023-05-17T01:13:13.102Z,99863.67
2023-05-17T01:15:43.541Z,99860.34
2023-05-17T01:18:12.959Z,99855.73
2023-05-17T01:20:46.278Z,99860.71
2023-05-17T01:23:31.761Z,99857.11
2023-05-17T01:26:01.464Z,99856.29
2023-05-17T01:28:28.030Z,99849.54
2023-05-17T01:30:55.694Z,99852.05
2023-05-17T01:33:22.352Z,99854.90
2023-05-17T01:35:49.024Z,99852.85
2023-05-17T01:38:15.826Z,99853.97
2023-05-17T01:40:48.305Z,99858.39
2023-05-17T01:43:17.845Z,99860.41
2023-05-17T01:45:47.135Z,99856.85
2023-05-17T01:48:23.144Z,99856.96
2023-05-17T01:50:51.421Z,99860.05
2023-05-17T01:53:19.470Z,99857.60
2023-05-17T01:55:48.716Z,99857.34
2023-05-17T01:58:15.297Z,99855.02
2023-05-17T02:00:43.036Z,99856.80
2023-05-17T02:03:13.944Z,99851.16
2023-05-17T02:05:41.191Z,99853.06
2023-05-17T02:08:07.792Z,99857.63
2023-05-17T02:10:34.715Z,99859.35
2023-05-17T02:13:03.191Z,99861.06
2023-05-17T02:15:30.370Z,99862.37
2023-05-17T02:17:59.392Z,99866.95
2023-05-17T02:20:26.339Z,99864.23
2023-05-17T02:22:52.936Z,99862.98
2023-05-17T02:25:19.878Z,99863.67
2023-05-17T02:27:46.447Z,99862.10
2023-05-17T02:30:17.207Z,99861.54
2023-05-17T02:32:45.074Z,99861.84
2023-05-17T02:35:13.653Z,99860.81
2023-05-17T02:37:40.830Z,99862.66
2023-05-17T02:40:09.693Z,99866.33
2023-05-17T02:42:36.414Z,99869.25
2023-05-17T02:45:03.120Z,99869.51
2023-05-17T02:47:30.192Z,99871.73
2023-05-17T02:49:56.876Z,99874.73
2023-05-17T02:52:23.615Z,99875.36
2023-05-17T02:54:51.595Z,99876.89
2023-05-17T02:57:18.364Z,99877.60
2023-05-17T02:59:45.127Z,99879.18
2023-05-17T03:02:12.032Z,99879.80
2023-05-17T03:04:38.673Z,99882.54
2023-05-17T03:07:07.129Z,99887.27
2023-05-17T03:09:34.564Z,99887.07
2023-05-17T03:12:01.336Z,99889.88
2023-05-17T03:14:31.364Z,99887.15
2023-05-17T03:16:58.042Z,99888.77
2023-05-17T03:19:25.350Z,99888.90
2023-05-17T03:21:52.704Z,99892.48
2023-05-17T03:24:19.583Z,99896.96
2023-05-17T03:26:46.221Z,99897.69
2023-05-17T03:29:13.189Z,99895.34
2023-05-17T03:31:42.103Z,99896.27
2023-05-17T03:34:08.999Z,99898.23
2023-05-17T03:36:36.265Z,99900.16
2023-05-17T03:39:03.016Z,99901.23
2023-05-17T03:41:29.720Z,99903.64
2023-05-17T03:43:56.552Z,99904.39
2023-05-17T03:46:23.393Z,99907.98
2023-05-17T03:48:50.138Z,99902.91
2023-05-17T03:51:17.176Z,99909.44
2023-05-17T03:53:44.406Z,99916.71
2023-05-17T03:56:11.285Z,99917.66
2023-05-17T03:58:37.982Z,99923.77
2023-05-17T04:01:05.455Z,99924.60
2023-05-17T04:03:33.118Z,99928.34
2023-05-17T04:06:06.969Z,99931.41
2023-05-17T04:08:37.188Z,99930.06
2023-05-17T04:11:10.292Z,99933.28
2023-05-17T04:13:39.927Z,99935.80
2023-05-17T04:16:07.554Z,99935.18
2023-05-17T04:18:35.161Z,99937.80
2023-05-17T04:21:02.267Z,99939.33
2023-05-17T04:23:29.545Z,99942.62
2023-05-17T04:25:58.035Z,99946.36
2023-05-17T04:28:25.221Z,99947.40
2023-05-17T04:30:52.388Z,99946.92
2023-05-17T04:33:20.017Z,99949.00
2023-05-17T04:35:47.022Z,99949.45
2023-05-17T04:38:14.415Z,99950.60
2023-05-17T04:40:41.292Z,99954.56
2023-05-17T04:43:08.732Z,99953.40
2023-05-17T04:45:37.474Z,99955.13
2023-05-17T04:48:04.537Z,99958.32
2023-05-17T04:50:31.778Z,99958.65
2023-05-17T04:52:58.435Z,99964.29
2023-05-17T04:55:25.376Z,99963.91
2023-05-17T04:57:52.463Z,99967.73
2023-05-17T05:00:20.953Z,99965.98
2023-05-17T05:02:52.152Z,99969.49
2023-05-17T05:05:19.899Z,99969.23
2023-05-17T05:07:46.858Z,99971.11
2023-05-17T05:10:13.578Z,99975.60
2023-05-17T05:12:41.273Z,99975.95
2023-05-17T05:15:08.511Z,99977.97
2023-05-17T05:17:35.915Z,99978.19
2023-05-17T05:20:02.808Z,99977.42
2023-05-17T05:22:29.560Z,99981.58
2023-05-17T05:24:56.645Z,99986.80
2023-05-17T05:27:23.262Z,99987.17
2023-05-17T05:29:53.825Z,99991.08
2023-05-17T05:32:20.476Z,99993.27
2023-05-17T05:34:48.099Z,99992.09
2023-05-17T05:37:16.194Z,99995.70
2023-05-17T05:39:47.144Z,99997.11
2023-05-17T05:42:14.791Z,99996.37
2023-05-17T05:44:41.390Z,99999.45
2023-05-17T05:47:08.505Z,100000.79
2023-05-17T05:49:35.274Z,100003.95
2023-05-17T05:52:01.973Z,100004.48
2023-05-17T05:54:29.030Z,99998.15
2023-05-17T05:56:55.724Z,100002.73
2023-05-17T05:59:22.591Z,100002.34
2023-05-17T06:01:49.249Z,100005.73
2023-05-17T06:04:15.931Z,100009.59
2023-05-17T06:06:42.730Z,100012.92
2023-05-17T06:09:12.302Z,100014.67
2023-05-17T06:11:39.881Z,100012.73
2023-05-17T06:14:06.552Z,100015.18
2023-05-17T06:16:33.137Z,100015.17
2023-05-17T06:19:00.029Z,100019.20
2023-05-17T06:21:26.802Z,100017.94
2023-05-17T06:23:53.367Z,100022.20
2023-05-17T06:26:19.972Z,100027.87
2023-05-17T06:28:46.584Z,100028.05
2023-05-17T06:31:13.151Z,100025.90
2023-05-17T06:33:39.768Z,100021.75
2023-05-17T06:36:06.902Z,100024.36
2023-05-17T06:38:33.588Z,100024.44
2023-05-17T06:41:00.194Z,100026.86
2023-05-17T06:43:26.953Z,100032.21
2023-05-17T06:45:54.713Z,100035.41
2023-05-17T06:48:21.455Z,100033.83
2023-05-17T06:50:48.263Z,100035.71
2023-05-17T06:53:15.016Z,100036.59
2023-05-17T06:55:41.941Z,100039.27
2023-05-17T06:58:08.874Z,100034.39
2023-05-17T07:00:36.175Z,100032.89
2023-05-17T07:03:02.920Z,100034.37
2023-05-17T07:05:31.238Z,100035.10
2023-05-17T07:07:58.770Z,100030.12
2023-05-17T07:10:25.405Z,100030.54
2023-05-17T07:12:52.446Z,100027.75
2023-05-17T07:15:19.489Z,100025.74
2023-05-17T07:17:46.070Z,100027.77
2023-05-17T07:20:12.993Z,100033.21
2023-05-17T07:22:39.870Z,100035.77
2023-05-17T07:25:06.957Z,100041.17
2023-05-17T07:27:34.881Z,100041.36
2023-05-17T07:30:01.971Z,100042.27
2023-05-17T07:32:28.661Z,100044.80
2023-05-17T07:34:55.363Z,100046.66
2023-05-17T07:37:21.957Z,100047.77
2023-05-17T07:39:48.541Z,100047.17
2023-05-17T07:42:15.174Z,100048.36
2023-05-17T07:44:41.970Z,100047.69
2023-05-17T07:47:08.557Z,100048.80
2023-05-17T07:49:35.144Z,100047.33
2023-05-17T07:52:02.800Z,100050.60
2023-05-17T07:54:33.198Z,100048.14
2023-05-17T07:57:00.395Z,100052.23
2023-05-17T07:59:27.119Z,100051.09
2023-05-17T08:01:53.929Z,100052.79
2023-05-17T08:04:21.039Z,100051.52
2023-05-17T08:06:48.505Z,100053.91
2023-05-17T08:09:18.796Z,100056.34
2023-05-17T08:11:48.358Z,100055.12
2023-05-17T08:14:15.249Z,100058.49
2023-05-17T08:16:42.319Z,100059.88
2023-05-17T08:19:13.051Z,100060.23
2023-05-17T08:21:40.367Z,100058.04
2023-05-17T08:24:06.973Z,100063.63
2023-05-17T08:26:33.947Z,100059.52
2023-05-17T08:29:02.574Z,100064.38
2023-05-17T08:31:29.493Z,100067.89
2023-05-17T08:33:56.185Z,100068.16
2023-05-17T08:36:22.824Z,100068.26
2023-05-17T08:38:49.400Z,100068.23
2023-05-17T08:41:16.275Z,100070.58
2023-05-17T08:43:44.679Z,100071.58
2023-05-17T08:46:11.415Z,100073.61
2023-05-17T08:48:42.046Z,100072.02
2023-05-17T08:51:10.727Z,100072.33
2023-05-17T08:53:37.559Z,100069.59
2023-05-17T08:56:05.448Z,100071.40
2023-05-17T08:58:41.086Z,100074.38
2023-05-17T09:01:18.910Z,100072.27
2023-05-17T09:03:51.813Z,100071.08
2023-05-17T09:06:20.386Z,100067.00
2023-05-17T09:08:47.110Z,100065.90
2023-05-17T09:11:13.822Z,100065.82
2023-05-17T09:13:40.688Z,100067.18
2023-05-17T09:16:12.618Z,100067.30
2023-05-17T09:18:39.361Z,100065.20
2023-05-17T09:33:15.261Z,100064.68
2023-05-17T09:35:44.327Z,100063.48
2023-05-17T09:38:11.857Z,100065.64
2023-05-17T09:40:42.190Z,100064.23
2023-05-17T09:43:09.301Z,100057.02
2023-05-17T09:45:36.371Z,100058.25
2023-05-17T09:48:19.108Z,100057.46
2023-05-17T09:50:46.542Z,100059.75
2023-05-17T09:53:22.368Z,100057.83
2023-05-17T09:55:48.957Z,100058.61
2023-05-17T09:58:15.744Z,100055.52
2023-05-17T10:00:42.324Z,100054.20
2023-05-17T10:03:10.626Z,100053.55
2023-05-17T10:05:38.326Z,100056.67
2023-05-17T10:08:05.004Z,100053.41
2023-05-17T10:10:32.592Z,100054.46
2023-05-17T10:12:59.521Z,100053.89
2023-05-17T10:15:26.567Z,100052.73
2023-05-17T10:17:53.983Z,100053.36
2023-05-17T10:20:21.188Z,100055.66
2023-05-17T10:22:47.945Z,100056.57
2023-05-17T10:25:14.539Z,100056.93
2023-05-17T10:27:41.993Z,100056.00
2023-05-17T10:30:09.084Z,100054.95
2023-05-17T10:32:35.698Z,100052.83
2023-05-17T10:35:14.063Z,100053.29
2023-05-17T10:37:41.289Z,100052.36
2023-05-17T10:40:13.379Z,100049.30
2023-05-17T10:42:41.438Z,100055.42
2023-05-17T10:45:09.544Z,100051.00
2023-05-17T10:47:36.446Z,100051.23
2023-05-17T10:50:03.468Z,100051.20
2023-05-17T10:52:30.181Z,100053.40
2023-05-17T10:54:57.259Z,100051.35
2023-05-17T10:57:49.226Z,100048.66
2023-05-17T11:00:21.171Z,100046.44
2023-05-17T11:02:49.074Z,100046.73
2023-05-17T11:05:26.156Z,100046.54
2023-05-17T11:07:53.081Z,100047.20
2023-05-17T11:10:19.685Z,100046.63
2023-05-17T11:12:48.184Z,100048.11
2023-05-17T11:15:15.233Z,100049.14
2023-05-17T11:17:46.593Z,100049.88
2023-05-17T11:20:17.120Z,100049.24
2023-05-17T11:22:49.744Z,100052.42
2023-05-17T11:25:16.412Z,100046.38
2023-05-17T11:27:47.074Z,100047.30
2023-05-17T11:30:20.716Z,100045.29
2023-05-17T11:32:51.187Z,100044.64
2023-05-17T11:35:18.385Z,100044.06
2023-05-17T11:37:45.049Z,100043.60
2023-05-17T11:40:13.350Z,100042.84
2023-05-17T11:42:40.047Z,100037.48
2023-05-17T11:45:07.225Z,100041.44
2023-05-17T11:47:38.828Z,100037.77
2023-05-17T11:50:06.424Z,100041.02
2023-05-17T11:52:33.072Z,100040.23
2023-05-17T11:55:00.008Z,100037.73
2023-05-17T11:57:30.598Z,100037.86
2023-05-17T12:00:11.812Z,100034.33
2023-05-17T12:02:41.244Z,100031.61
2023-05-17T12:05:09.354Z,100030.54
2023-05-17T12:07:37.804Z,100026.23
2023-05-17T12:10:06.503Z,100023.34
2023-05-17T12:12:33.115Z,100024.95
2023-05-17T12:14:59.682Z,100022.05
2023-05-17T12:17:29.045Z,100018.55
2023-05-17T12:19:55.922Z,100016.48
2023-05-17T12:22:22.864Z,100017.21
2023-05-17T12:24:49.513Z,100013.65
2023-05-17T12:27:24.508Z,100006.46
2023-05-17T12:29:51.334Z,100003.77
2023-05-17T12:32:17.941Z,100002.08
2023-05-17T12:34:44.585Z,100001.88
2023-05-17T12:37:13.173Z,99997.39
2023-05-17T12:39:39.884Z,99997.56
2023-05-17T12:42:06.880Z,99993.53
2023-05-17T12:44:33.551Z,99993.45
2023-05-17T12:47:02.177Z,99997.56
2023-05-17T12:49:28.787Z,99993.69
2023-05-17T12:51:55.541Z,99991.71
2023-05-17T12:54:28.646Z,99992.38
2023-05-17T12:56:55.483Z,99991.02
2023-05-17T12:59:25.204Z,99990.34
2023-05-17T13:01:52.489Z,99986.44
2023-05-17T13:04:19.957Z,99987.83
2023-05-17T13:06:53.266Z,99990.27
2023-05-17T13:09:24.205Z,99994.23
2023-05-17T13:11:51.709Z,99992.36
2023-05-17T13:14:37.845Z,99995.77
2023-05-17T13:17:05.502Z,99995.59
2023-05-17T13:19:32.261Z,99990.45
2023-05-17T13:21:59.111Z,99987.42
2023-05-17T13:24:26.686Z,99984.92
2023-05-17T13:26:53.272Z,99984.39
2023-05-17T13:29:25.589Z,99987.40
2023-05-17T13:32:02.408Z,99986.95
2023-05-17T13:34:29.126Z,99983.09
2023-05-17T13:36:57.386Z,99982.83
2023-05-17T13:39:23.949Z,99981.73
2023-05-17T13:41:50.521Z,99982.08
2023-05-17T13:44:17.121Z,99982.02
2023-05-17T13:46:44.368Z,99981.42
2023-05-17T13:49:11.077Z,99977.91
2023-05-17T13:51:37.957Z,99974.72
2023-05-17T13:54:05.583Z,99975.48
2023-05-17T13:56:32.249Z,99970.86
2023-05-17T13:58:59.166Z,99970.15
2023-05-17T14:01:25.772Z,99965.54
2023-05-17T14:03:52.792Z,99963.32
2023-05-17T14:06:19.556Z,99962.48
2023-05-17T14:08:46.347Z,99964.90
2023-05-17T14:11:13.121Z,99964.76
2023-05-17T14:13:41.025Z,99962.46
2023-05-17T14:16:07.666Z,99963.21
2023-05-17T14:18:34.329Z,99963.02
2023-05-17T14:21:01.495Z,99959.94
2023-05-17T14:23:28.074Z,99959.05
2023-05-17T14:25:54.645Z,99957.73
2023-05-17T14:28:21.223Z,99954.27
2023-05-17T14:30:47.851Z,99954.95
2023-05-17T14:33:14.658Z,99951.05
2023-05-17T14:35:41.435Z,99949.55
2023-05-17T14:38:08.045Z,99951.26
2023-05-17T14:40:34.728Z,99950.33
2023-05-17T14:43:01.330Z,99947.52
2023-05-17T14:45:27.972Z,99947.65
2023-05-17T14:47:54.783Z,99946.87
2023-05-17T14:50:21.440Z,99946.02
2023-05-17T14:52:49.161Z,99942.81
2023-05-17T14:55:18.817Z,99940.09
2023-05-17T14:57:45.982Z,99940.96
2023-05-17T15:00:13.679Z,99939.86
2023-05-17T15:02:40.535Z,99937.05
2023-05-17T15:05:07.575Z,99938.52
2023-05-17T15:07:35.557Z,99940.79
2023-05-17T15:10:03.432Z,99947.26
2023-05-17T15:12:30.467Z,99946.13
2023-05-17T15:14:57.470Z,99941.25
2023-05-17T15:17:24.301Z,99939.58
2023-05-17T15:19:51.653Z,99936.48
2023-05-17T15:22:19.190Z,99936.20
2023-05-17T15:24:46.028Z,99938.58
2023-05-17T15:27:15.969Z,99943.16
2023-05-17T15:29:43.059Z,99944.26
2023-05-17T15:32:09.694Z,99943.23
2023-05-17T15:34:36.678Z,99942.08
2023-05-17T15:37:03.425Z,99941.46
2023-05-17T15:39:30.081Z,99942.48
2023-05-17T15:41:56.688Z,99942.27
2023-05-17T15:44:23.945Z,99942.00
2023-05-17T15:46:50.865Z,99944.45
2023-05-17T15:49:17.533Z,99943.24
2023-05-17T15:51:44.252Z,99944.20
2023-05-17T15:54:11.036Z,99944.20
2023-05-17T15:56:38.459Z,99944.16
2023-05-17T15:59:07.722Z,99943.48
2023-05-17T16:01:34.388Z,99944.86
2023-05-17T16:04:00.978Z,99946.89
2023-05-17T16:06:27.786Z,99946.20
2023-05-17T16:08:54.768Z,99949.79
2023-05-17T16:11:21.518Z,99950.14
2023-05-17T16:13:48.180Z,99951.73
2023-05-17T16:16:15.468Z,99950.75
2023-05-17T16:18:42.115Z,99952.30
2023-05-17T16:21:08.825Z,99949.77
2023-05-17T16:23:35.385Z,99948.66
2023-05-17T16:26:02.905Z,99945.73
2023-05-17T16:28:31.905Z,99945.65
2023-05-17T16:30:58.582Z,99945.86
2023-05-17T16:33:25.337Z,99946.17
2023-05-17T16:35:52.051Z,99945.00
2023-05-17T16:38:18.690Z,99947.11
2023-05-17T16:40:45.390Z,99946.73
2023-05-17T16:43:15.989Z,99943.22
2023-05-17T16:45:43.863Z,99945.84
2023-05-17T16:48:14.212Z,99946.52
2023-05-17T16:50:41.306Z,99948.91
2023-05-17T16:53:07.945Z,99947.80
2023-05-17T16:55:36.349Z,99945.80
2023-05-17T16:58:03.082Z,99947.30
2023-05-17T17:00:30.252Z,99944.80
2023-05-17T17:02:57.894Z,99942.56
2023-05-17T17:05:24.693Z,99942.22
2023-05-17T17:07:51.613Z,99940.67
2023-05-17T17:10:20.080Z,99940.50
2023-05-17T17:12:47.304Z,99940.98
2023-05-17T17:15:14.239Z,99941.10
2023-05-17T17:17:42.016Z,99945.14
2023-05-17T17:20:09.244Z,99944.17
2023-05-17T17:22:36.199Z,99944.73
2023-05-17T17:25:02.818Z,99944.93
2023-05-17T17:27:29.450Z,99947.04
2023-05-17T17:29:56.185Z,99947.79
2023-05-17T17:32:22.850Z,99946.38
2023-05-17T17:34:49.526Z,99947.11
2023-05-17T17:37:16.194Z,99952.73
2023-05-17T17:39:42.958Z,99954.30
2023-05-17T17:42:09.973Z,99956.95
2023-05-17T17:44:36.613Z,99957.14
2023-05-17T17:47:03.478Z,99961.51
2023-05-17T17:49:30.209Z,99958.02
2023-05-17T17:51:58.132Z,99958.12
2023-05-17T17:54:24.786Z,99963.20
2023-05-17T17:56:51.369Z,99961.41
2023-05-17T17:59:17.967Z,99963.44
2023-05-17T18:01:44.724Z,99960.40
2023-05-17T18:04:13.587Z,99957.60
2023-05-17T18:06:41.981Z,99960.48
2023-05-17T18:09:08.808Z,99961.77
2023-05-17T18:11:35.475Z,99961.30
2023-05-17T18:14:02.656Z,99962.27
2023-05-17T18:16:29.557Z,99962.38
2023-05-17T18:18:56.710Z,99962.89
2023-05-17T18:21:23.429Z,99967.56
2023-05-17T18:23:51.468Z,99965.77
2023-05-17T18:26:18.054Z,99966.20
2023-05-17T18:28:44.618Z,99967.60
2023-05-17T18:31:11.410Z,99965.62
2023-05-17T18:33:38.073Z,99964.09
2023-05-17T18:36:04.953Z,99963.55
2023-05-17T18:38:31.945Z,99964.17
2023-05-17T18:40:58.539Z,99964.27
2023-05-17T18:43:25.135Z,99966.10
2023-05-17T18:45:51.798Z,99969.09
2023-05-17T18:48:18.770Z,99967.48
2023-05-17T18:50:45.370Z,99972.16
2023-05-17T18:53:13.097Z,99969.64
2023-05-17T18:55:40.405Z,99972.45
2023-05-17T18:58:07.298Z,99967.11
2023-05-17T19:00:33.895Z,99969.02
2023-05-17T19:03:00.585Z,99970.86
2023-05-17T19:05:27.199Z,99972.41
2023-05-17T19:07:55.268Z,99972.64
2023-05-17T19:10:22.202Z,99974.63
2023-05-17T19:12:48.893Z,99974.59
2023-05-17T19:15:15.796Z,99977.17
2023-05-17T19:17:42.840Z,99976.02
2023-05-17T19:20:10.083Z,99976.52
2023-05-17T19:22:36.707Z,99978.41
2023-05-17T19:25:03.361Z,99979.66
2023-05-17T19:27:29.955Z,99979.39
2023-05-17T19:29:56.539Z,99978.77
2023-05-17T19:32:23.331Z,99976.14
2023-05-17T19:34:50.111Z,99973.26
2023-05-17T19:37:17.049Z,99975.83
2023-05-17T19:39:43.905Z,99974.79
2023-05-17T19:42:10.883Z,99977.71
2023-05-17T19:44:37.462Z,99976.34
2023-05-17T19:47:04.219Z,99980.45
2023-05-17T19:49:31.009Z,99980.58
2023-05-17T19:52:00.752Z,99981.73
2023-05-17T19:54:28.130Z,99983.26
2023-05-17T19:56:54.697Z,99985.56
2023-05-17T19:59:21.272Z,99979.95
2023-05-17T20:01:47.930Z,99980.11
2023-05-17T20:04:14.600Z,99981.73
2023-05-17T20:06:41.342Z,99980.02
2023-05-17T20:09:07.940Z,99980.93
2023-05-17T20:11:34.498Z,99980.23
2023-05-17T20:14:01.161Z,99980.84
2023-05-17T20:16:29.518Z,99982.12
2023-05-17T20:18:58.201Z,99983.04
2023-05-17T20:21:26.469Z,99981.70
2023-05-17T20:24:00.805Z,99985.48
2023-05-17T20:26:31.680Z,99979.48
2023-05-17T20:28:59.156Z,99981.23
2023-05-17T20:31:26.145Z,99980.30
2023-05-17T20:33:53.134Z,99980.67
2023-05-17T20:36:19.833Z,99984.38
2023-05-17T20:38:46.616Z,99981.54
2023-05-17T20:41:14.909Z,99985.45
2023-05-17T20:43:49.779Z,99986.14
2023-05-17T20:46:16.683Z,99986.36
2023-05-17T20:48:43.420Z,99989.63
2023-05-17T20:51:10.323Z,99987.08
2023-05-17T20:53:37.066Z,99988.14
2023-05-17T20:56:03.690Z,99990.38
2023-05-17T20:58:30.513Z,99987.73
2023-05-17T21:00:57.677Z,99995.02
2023-05-17T21:03:28.368Z,99993.14
2023-05-17T21:05:55.311Z,99993.05
2023-05-17T21:08:21.948Z,99995.29
2023-05-17T21:10:49.398Z,99994.16
2023-05-17T21:13:15.999Z,99992.69
2023-05-17T21:15:42.705Z,99990.54
2023-05-17T21:18:09.817Z,99991.75
2023-05-17T21:20:37.076Z,99989.02
2023-05-17T21:23:03.871Z,99991.56
2023-05-17T21:25:30.700Z,99991.91
2023-05-17T21:27:57.487Z,99990.11
2023-05-17T21:30:24.196Z,99993.48
2023-05-17T21:32:51.484Z,99994.23
2023-05-17T21:35:18.195Z,99993.73
2023-05-17T21:37:44.833Z,99990.73
2023-05-17T21:40:11.739Z,99989.48
2023-05-17T21:42:38.333Z,99990.39
2023-05-17T21:45:05.381Z,99989.33
2023-05-17T21:47:31.973Z,99988.94
2023-05-17T21:49:59.016Z,99987.20
2023-05-17T21:52:25.625Z,99989.94
2023-05-17T21:54:52.191Z,99991.05
2023-05-17T21:57:21.026Z,99988.71
2023-05-17T21:59:48.291Z,99988.46
2023-05-17T22:02:14.894Z,99994.52
2023-05-17T22:04:41.807Z,99990.30
2023-05-17T22:07:08.949Z,99989.05
2023-05-17T22:09:35.541Z,99989.79
2023-05-17T22:12:02.307Z,99991.11
2023-05-17T22:14:33.298Z,99989.71
2023-05-17T22:17:00.257Z,99991.09
2023-05-17T22:19:26.992Z,99988.01
2023-05-17T22:21:53.745Z,99987.16
2023-05-17T22:24:20.557Z,99987.08
2023-05-17T22:26:47.212Z,99988.34
2023-05-17T22:29:13.817Z,99992.02
2023-05-17T22:31:40.456Z,99990.48
2023-05-17T22:34:07.150Z,99992.95
2023-05-17T22:36:34.383Z,99995.26
2023-05-17T22:39:00.945Z,99993.69
2023-05-17T22:41:27.556Z,99991.05
2023-05-17T22:43:54.120Z,99991.09
2023-05-17T22:46:20.705Z,99991.67
2023-05-17T22:48:47.332Z,99994.56
2023-05-17T22:51:13.947Z,99994.58
2023-05-17T22:53:40.548Z,99997.86
2023-05-17T22:56:07.112Z,100000.04
2023-05-17T22:58:33.694Z,100001.58
2023-05-17T23:01:00.705Z,99998.23
2023-05-17T23:03:27.428Z,100000.77
2023-05-17T23:06:02.344Z,100003.09
2023-05-17T23:08:30.133Z,100000.83
2023-05-17T23:10:56.750Z,100002.16
2023-05-17T23:13:23.400Z,100003.52
2023-05-17T23:15:51.417Z,100006.30
2023-05-17T23:18:18.403Z,100006.64
2023-05-17T23:20:46.348Z,100009.54
2023-05-17T23:23:16.250Z,100009.33
2023-05-17T23:25:44.880Z,100013.84
2023-05-17T23:28:11.638Z,100015.18
2023-05-17T23:30:40.010Z,100011.80
2023-05-17T23:33:06.837Z,100016.19
2023-05-17T23:35:33.562Z,100015.36
2023-05-17T23:38:00.354Z,100014.09
2023-05-17T23:40:26.960Z,100015.19
2023-05-17T23:42:53.555Z,100018.41
2023-05-17T23:45:21.022Z,100016.38
2023-05-17T23:47:47.854Z,100020.27
2023-05-17T23:50:14.624Z,100021.42
2023-05-17T23:52:43.570Z,100020.96
2023-05-17T23:55:10.357Z,100024.28
2023-05-17T23:57:37.906Z,100025.59
